createdAt,value
2019-01-15T00:01:12.781Z,2.40
2019-01-15T00:03:41.945Z,2.40
2019-01-15T00:06:11.118Z,2.30
2019-01-15T00:08:40.272Z,2.30
2019-01-15T00:11:09.466Z,2.20
2019-01-15T00:13:38.593Z,2.10
2019-01-15T00:16:07.897Z,2.20
2019-01-15T00:18:36.934Z,2.40
2019-01-15T00:21:05.957Z,2.50
2019-01-15T00:23:35.144Z,2.50
2019-01-15T00:26:04.293Z,2.70
2019-01-15T00:28:33.354Z,2.90
2019-01-15T00:31:02.493Z,2.80
2019-01-15T00:33:31.552Z,2.80
2019-01-15T00:36:00.558Z,2.90
2019-01-15T00:38:29.720Z,3.00
2019-01-15T00:40:58.880Z,2.90
2019-01-15T00:43:27.958Z,2.80
2019-01-15T00:45:57.361Z,2.70
2019-01-15T00:48:26.433Z,2.40
2019-01-15T00:50:55.481Z,2.50
2019-01-15T00:53:24.581Z,2.40
2019-01-15T00:55:53.650Z,2.30
2019-01-15T00:58:22.850Z,2.30
2019-01-15T01:00:51.903Z,2.40
2019-01-15T01:03:21.016Z,2.30
2019-01-15T01:05:50.305Z,2.30
2019-01-15T01:08:19.411Z,2.30
2019-01-15T01:10:48.473Z,2.40
2019-01-15T01:13:17.438Z,2.40
2019-01-15T01:15:46.493Z,2.40
2019-01-15T01:18:15.729Z,2.60
2019-01-15T01:20:44.801Z,2.70
2019-01-15T01:23:13.841Z,2.60
2019-01-15T01:25:43.374Z,2.50
2019-01-15T01:28:12.342Z,2.40
2019-01-15T01:30:42.943Z,2.30
2019-01-15T01:33:12.094Z,2.50
2019-01-15T01:35:41.180Z,2.60
2019-01-15T01:38:10.232Z,2.70
2019-01-15T01:40:39.362Z,2.60
2019-01-15T01:43:08.648Z,2.70
2019-01-15T01:45:37.714Z,2.80
2019-01-15T01:48:06.940Z,2.70
2019-01-15T01:50:36.049Z,2.80
2019-01-15T01:53:05.326Z,2.60
2019-01-15T01:55:34.368Z,2.60
2019-01-15T01:58:03.524Z,2.60
2019-01-15T02:00:32.665Z,2.70
2019-01-15T02:03:01.716Z,2.70
2019-01-15T02:05:30.738Z,2.50
2019-01-15T02:07:59.713Z,2.60
2019-01-15T02:10:28.751Z,2.60
2019-01-15T02:12:57.883Z,2.80
2019-01-15T02:15:26.942Z,3.00
2019-01-15T02:17:56.113Z,2.90
2019-01-15T02:20:25.143Z,3.00
2019-01-15T02:22:54.506Z,3.20
2019-01-15T02:25:23.595Z,3.20
2019-01-15T02:27:54.567Z,3.30
2019-01-15T02:30:25.913Z,3.50
2019-01-15T02:32:55.201Z,3.40
2019-01-15T02:35:24.276Z,3.20
2019-01-15T02:37:53.306Z,3.00
2019-01-15T02:40:22.463Z,3.00
2019-01-15T02:42:51.991Z,3.00
2019-01-15T02:45:30.407Z,3.20
2019-01-15T02:47:59.530Z,3.40
2019-01-15T02:50:30.176Z,3.50
2019-01-15T02:52:59.168Z,3.40
2019-01-15T02:55:28.235Z,3.10
2019-01-15T02:57:57.257Z,3.40
2019-01-15T03:00:27.074Z,3.10
2019-01-15T03:02:56.365Z,3.10
2019-01-15T03:05:25.678Z,3.10
2019-01-15T03:07:54.766Z,2.90
2019-01-15T03:10:24.230Z,2.90
2019-01-15T03:12:56.604Z,2.70
2019-01-15T03:15:25.465Z,2.70
2019-01-15T03:17:54.628Z,2.60
2019-01-15T03:20:23.740Z,2.60
2019-01-15T03:22:53.054Z,2.60
2019-01-15T03:25:22.170Z,2.40
2019-01-15T03:27:51.192Z,2.50
2019-01-15T03:30:24.768Z,2.50
2019-01-15T03:32:54.066Z,2.40
2019-01-15T03:35:23.730Z,2.40
2019-01-15T03:37:52.761Z,2.50
2019-01-15T03:40:26.686Z,2.30
2019-01-15T03:43:03.194Z,2.50
2019-01-15T03:45:27.054Z,2.60
2019-01-15T03:47:56.188Z,2.60
2019-01-15T03:50:25.488Z,2.60
2019-01-15T03:52:54.561Z,2.60
2019-01-15T03:55:23.674Z,2.70
2019-01-15T03:57:52.909Z,2.90
2019-01-15T04:00:24.138Z,3.10
2019-01-15T04:02:54.071Z,3.10
2019-01-15T04:05:23.258Z,3.20
2019-01-15T04:07:59.474Z,3.50
2019-01-15T04:10:29.036Z,3.50
2019-01-15T04:12:58.924Z,3.40
2019-01-15T04:15:28.185Z,3.30
2019-01-15T04:17:57.275Z,3.10
2019-01-15T04:20:26.449Z,3.00
2019-01-15T04:22:55.614Z,3.10
2019-01-15T04:25:24.741Z,2.80
2019-01-15T04:27:53.909Z,2.70
2019-01-15T04:30:24.579Z,2.60
2019-01-15T04:32:53.852Z,2.70
2019-01-15T04:35:23.023Z,2.80
2019-01-15T04:37:52.223Z,2.90
2019-01-15T04:40:22.466Z,3.10
2019-01-15T04:42:51.774Z,3.20
2019-01-15T04:45:24.845Z,3.30
2019-01-15T04:47:54.233Z,3.40
2019-01-15T04:50:23.377Z,3.30
2019-01-15T04:52:55.958Z,3.30
2019-01-15T04:55:25.086Z,3.20
2019-01-15T04:57:54.289Z,3.20
2019-01-15T05:00:23.901Z,3.20
2019-01-15T05:02:55.408Z,3.20
2019-01-15T05:05:24.690Z,3.10
2019-01-15T05:07:53.845Z,3.20
2019-01-15T05:10:22.934Z,3.20
2019-01-15T05:12:52.353Z,3.40
2019-01-15T05:15:21.471Z,3.40
2019-01-15T05:17:50.545Z,3.50
2019-01-15T05:20:19.874Z,3.50
2019-01-15T05:22:48.996Z,3.50
2019-01-15T05:25:19.601Z,3.60
2019-01-15T05:27:48.730Z,3.70
2019-01-15T05:30:20.729Z,3.60
2019-01-15T05:32:50.065Z,3.60
2019-01-15T05:35:19.154Z,3.60
2019-01-15T05:37:48.577Z,3.50
2019-01-15T05:40:18.048Z,3.60
2019-01-15T05:42:47.122Z,3.60
2019-01-15T05:45:21.858Z,3.70
2019-01-15T05:47:52.515Z,3.70
2019-01-15T05:50:28.052Z,3.70
2019-01-15T05:52:57.055Z,4.00
2019-01-15T05:55:26.030Z,4.00
2019-01-15T05:57:55.115Z,4.10
2019-01-15T06:00:24.436Z,3.90
2019-01-15T06:02:53.518Z,3.80
2019-01-15T06:05:22.634Z,3.70
2019-01-15T06:07:51.750Z,3.70
2019-01-15T06:10:20.732Z,3.90
2019-01-15T06:12:49.726Z,3.90
2019-01-15T06:15:18.829Z,4.00
2019-01-15T06:17:47.993Z,3.90
2019-01-15T06:20:17.229Z,3.80
2019-01-15T06:22:46.401Z,3.80
2019-01-15T06:25:15.745Z,4.00
2019-01-15T06:27:44.846Z,4.00
2019-01-15T06:30:14.652Z,4.00
2019-01-15T06:32:43.724Z,3.90
2019-01-15T06:35:13.061Z,4.10
2019-01-15T06:37:42.480Z,4.10
2019-01-15T06:40:13.204Z,3.90
2019-01-15T06:42:42.351Z,3.80
2019-01-15T06:45:14.716Z,3.90
2019-01-15T06:47:43.788Z,3.90
2019-01-15T06:50:14.410Z,3.90
2019-01-15T06:52:43.976Z,3.90
2019-01-15T06:55:15.178Z,4.10
2019-01-15T06:57:44.409Z,4.10
2019-01-15T07:00:18.823Z,4.10
2019-01-15T07:02:47.924Z,4.00
2019-01-15T07:05:17.598Z,4.00
2019-01-15T07:07:46.658Z,4.00
2019-01-15T07:10:18.844Z,4.10
2019-01-15T07:12:47.995Z,4.00
2019-01-15T07:15:17.113Z,4.10
2019-01-15T07:17:47.181Z,4.10
2019-01-15T07:20:16.316Z,4.10
2019-01-15T07:22:45.448Z,4.30
2019-01-15T07:25:15.485Z,4.40
2019-01-15T07:27:44.622Z,4.60
2019-01-15T07:30:16.638Z,4.40
2019-01-15T07:32:47.033Z,4.40
2019-01-15T07:35:16.140Z,4.40
2019-01-15T07:37:45.201Z,4.30
2019-01-15T07:40:14.437Z,4.40
2019-01-15T07:42:43.618Z,4.40
2019-01-15T07:45:13.119Z,4.30
2019-01-15T07:47:42.381Z,4.40
2019-01-15T07:50:16.445Z,4.60
2019-01-15T07:52:45.645Z,4.50
2019-01-15T07:55:15.870Z,4.30
2019-01-15T07:57:44.906Z,4.20
2019-01-15T08:00:16.725Z,4.20
2019-01-15T08:02:46.027Z,4.30
2019-01-15T08:05:16.024Z,4.30
2019-01-15T08:07:45.132Z,4.20
2019-01-15T08:10:15.345Z,4.20
2019-01-15T08:12:44.457Z,4.30
2019-01-15T08:16:10.950Z,4.20
2019-01-15T08:22:15.170Z,4.30
2019-01-15T08:24:44.289Z,4.30
2019-01-15T08:27:32.811Z,4.30
2019-01-15T08:30:40.279Z,4.20
2019-01-15T08:33:28.604Z,4.00
2019-01-15T08:39:24.145Z,4.20
2019-01-15T08:42:12.420Z,4.30
2019-01-15T08:44:53.693Z,4.30
2019-01-15T08:47:36.023Z,4.30
2019-01-15T08:50:16.997Z,4.40
2019-01-15T08:52:57.839Z,4.40
2019-01-15T08:55:38.722Z,4.20
2019-01-15T08:58:19.673Z,4.40
2019-01-15T09:01:01.197Z,4.40
2019-01-15T09:03:42.049Z,4.30
2019-01-15T09:06:23.955Z,4.30
2019-01-15T09:09:05.600Z,4.20
2019-01-15T09:11:46.423Z,4.30
2019-01-15T09:14:27.313Z,4.30
2019-01-15T09:17:11.107Z,4.30
2019-01-15T09:19:51.158Z,4.40
2019-01-15T09:22:31.685Z,4.40
2019-01-15T09:25:12.823Z,4.30
2019-01-15T09:30:38.482Z,4.20
2019-01-15T09:33:19.518Z,4.30
2019-01-15T09:36:00.964Z,4.20
2019-01-15T09:38:41.749Z,4.10
2019-01-15T09:41:23.084Z,4.20
2019-01-15T09:44:04.132Z,4.70
2019-01-15T09:46:45.058Z,4.70
2019-01-15T09:49:26.478Z,4.70
2019-01-15T09:52:13.004Z,4.90
2019-01-15T09:54:49.888Z,5.10
2019-01-15T09:57:31.837Z,4.70
2019-01-15T10:00:12.961Z,4.40
2019-01-15T10:02:53.530Z,4.70
2019-01-15T10:05:34.952Z,4.90
2019-01-15T10:08:16.682Z,4.90
2019-01-15T10:10:57.818Z,4.80
2019-01-15T10:13:38.444Z,5.00
2019-01-15T10:22:03.724Z,4.50
2019-01-15T10:24:44.589Z,4.50
2019-01-15T10:27:25.746Z,4.70
2019-01-15T10:30:06.995Z,4.80
2019-01-15T10:32:48.581Z,4.90
2019-01-15T10:35:29.105Z,5.10
2019-01-15T10:38:09.898Z,5.40
2019-01-15T10:40:50.815Z,5.30
2019-01-15T10:43:31.365Z,5.10
2019-01-15T10:46:11.955Z,5.30
2019-01-15T10:48:53.288Z,5.30
2019-01-15T10:51:34.435Z,5.60
2019-01-15T10:54:15.957Z,5.70
2019-01-15T10:56:56.805Z,5.50
2019-01-15T10:59:38.118Z,5.60
2019-01-15T11:02:19.718Z,5.80
2019-01-15T11:05:00.884Z,5.60
2019-01-15T11:07:41.686Z,5.90
2019-01-15T11:10:22.910Z,6.00
2019-01-15T11:13:04.166Z,5.90
2019-01-15T11:15:45.131Z,5.80
2019-01-15T11:18:27.238Z,5.80
2019-01-15T11:21:08.515Z,5.90
2019-01-15T11:23:49.109Z,5.90
2019-01-15T11:26:29.756Z,6.30
2019-01-15T11:29:10.525Z,6.40
2019-01-15T11:31:51.382Z,6.30
2019-01-15T11:34:32.793Z,6.10
2019-01-15T11:37:13.377Z,6.20
2019-01-15T11:39:54.357Z,6.60
2019-01-15T11:42:35.824Z,6.50
2019-01-15T11:45:16.475Z,6.40
2019-01-15T11:47:57.088Z,6.40
2019-01-15T11:50:37.996Z,6.10
2019-01-15T11:53:18.754Z,6.10
2019-01-15T11:55:59.466Z,6.10
2019-01-15T11:58:41.369Z,6.30
2019-01-15T12:01:28.725Z,6.30
2019-01-15T12:07:40.406Z,6.20
2019-01-15T12:10:30.772Z,6.10
2019-01-15T12:13:34.420Z,6.20
2019-01-15T12:16:35.838Z,6.10
2019-01-15T12:19:41.363Z,6.10
2019-01-15T12:22:33.592Z,6.00
2019-01-15T12:25:39.814Z,5.90
2019-01-15T12:31:30.195Z,5.90
2019-01-15T12:34:30.125Z,5.80
2019-01-15T12:37:22.778Z,5.80
2019-01-15T12:40:23.370Z,5.90
2019-01-15T12:43:19.886Z,6.00
2019-01-15T12:46:21.083Z,6.20
2019-01-15T12:52:03.161Z,6.00
2019-01-15T12:58:04.858Z,5.90
2019-01-15T13:01:05.083Z,5.90
2019-01-15T13:04:05.355Z,5.70
2019-01-15T13:07:05.812Z,5.70
2019-01-15T13:09:57.310Z,5.90
2019-01-15T13:15:56.843Z,5.80
2019-01-15T13:18:57.003Z,5.80
2019-01-15T13:21:46.523Z,5.70
2019-01-15T13:24:40.277Z,5.60
2019-01-15T13:27:34.290Z,5.70
2019-01-15T13:33:22.059Z,5.70
2019-01-15T13:36:14.331Z,5.90
2019-01-15T13:39:10.526Z,5.90
2019-01-15T13:42:13.122Z,5.60
2019-01-15T13:45:12.984Z,5.60
2019-01-15T13:48:19.185Z,5.70
2019-01-15T13:51:19.655Z,5.90
2019-01-15T13:54:26.336Z,6.10
2019-01-15T13:57:19.636Z,6.30
2019-01-15T14:00:19.938Z,6.40
2019-01-15T14:06:22.604Z,6.20
2019-01-15T14:09:23.215Z,6.00
2019-01-15T14:12:29.474Z,6.20
2019-01-15T14:15:19.128Z,6.40
2019-01-15T14:18:25.726Z,6.20
2019-01-15T14:21:26.604Z,6.10
2019-01-15T14:24:32.688Z,6.10
2019-01-15T14:27:32.853Z,6.30
2019-01-15T14:30:32.271Z,6.20
2019-01-15T14:33:27.571Z,6.40
2019-01-15T14:36:27.575Z,6.50
2019-01-15T14:39:27.936Z,6.40
2019-01-15T14:42:26.205Z,6.50
2019-01-15T14:45:29.603Z,6.40
2019-01-15T14:48:29.487Z,6.10
2019-01-15T14:51:29.329Z,6.00
2019-01-15T14:54:28.936Z,5.90
2019-01-15T14:57:24.155Z,5.90
2019-01-15T15:00:26.430Z,5.90
2019-01-15T15:06:16.698Z,5.90
2019-01-15T15:09:17.266Z,5.90
2019-01-15T15:15:12.660Z,6.10
2019-01-15T15:21:35.388Z,6.00
2019-01-15T15:24:14.905Z,6.00
2019-01-15T15:27:20.421Z,6.10
2019-01-15T15:29:58.091Z,6.20
2019-01-15T15:32:55.207Z,6.10
2019-01-15T15:35:58.708Z,6.10
2019-01-15T15:39:04.318Z,6.20
2019-01-15T15:42:04.581Z,6.40
2019-01-15T15:45:04.823Z,6.30
2019-01-15T15:51:27.425Z,6.30
2019-01-15T15:57:31.966Z,6.30
2019-01-15T16:00:31.967Z,6.40
2019-01-15T16:03:32.354Z,6.30
2019-01-15T16:06:28.523Z,6.30
2019-01-15T16:09:28.873Z,6.20
2019-01-15T16:15:39.640Z,6.60
2019-01-15T16:18:40.178Z,6.50
2019-01-15T16:21:34.108Z,6.50
2019-01-15T16:24:29.230Z,6.40
2019-01-15T16:27:29.463Z,6.30
2019-01-15T16:30:22.090Z,6.40
2019-01-15T16:33:18.261Z,6.50
2019-01-15T16:36:18.902Z,6.40
2019-01-15T16:39:19.193Z,6.40
2019-01-15T16:42:25.278Z,6.30
2019-01-15T16:45:27.985Z,6.40
2019-01-15T16:48:18.928Z,6.50
2019-01-15T16:54:21.165Z,6.50
2019-01-15T16:57:22.731Z,6.60
2019-01-15T17:00:16.825Z,6.50
2019-01-15T17:03:17.203Z,6.50
2019-01-15T17:06:08.873Z,6.50
2019-01-15T17:09:09.069Z,6.50
2019-01-15T17:12:06.926Z,6.60
2019-01-15T17:15:06.478Z,6.60
2019-01-15T17:18:11.989Z,6.60
2019-01-15T17:21:12.879Z,6.60
2019-01-15T17:24:10.458Z,6.60
2019-01-15T17:27:10.436Z,6.60
2019-01-15T17:33:25.764Z,6.60
2019-01-15T17:36:26.070Z,6.70
2019-01-15T17:39:26.565Z,6.50
2019-01-15T17:45:09.483Z,6.80
2019-01-15T17:51:13.516Z,6.90
2019-01-15T17:54:20.210Z,6.90
2019-01-15T17:57:19.907Z,6.90
2019-01-15T18:00:19.930Z,6.90
2019-01-15T18:03:20.189Z,6.80
2019-01-15T18:06:20.817Z,6.90
2019-01-15T18:09:20.877Z,6.90
2019-01-15T18:12:20.602Z,7.00
2019-01-15T18:15:20.697Z,6.90
2019-01-15T18:18:16.443Z,6.70
2019-01-15T18:21:14.299Z,6.70
2019-01-15T18:27:12.355Z,6.80
2019-01-15T18:30:18.114Z,6.80
2019-01-15T18:36:30.790Z,6.70
2019-01-15T18:39:31.118Z,6.60
2019-01-15T18:42:32.577Z,6.70
2019-01-15T18:45:22.536Z,6.70
2019-01-15T18:48:22.294Z,6.70
2019-01-15T18:54:11.586Z,6.90
2019-01-15T18:57:12.104Z,6.90
2019-01-15T19:03:19.760Z,6.90
2019-01-15T19:06:10.364Z,6.90
2019-01-15T19:09:10.105Z,6.90
2019-01-15T19:12:02.986Z,7.00
2019-01-15T19:15:03.063Z,7.00
2019-01-15T19:18:02.984Z,7.20
2019-01-15T19:20:56.818Z,7.20
2019-01-15T19:23:57.021Z,7.20
2019-01-15T19:26:57.036Z,7.10
2019-01-15T19:30:03.511Z,7.10
2019-01-15T19:33:03.973Z,7.00
2019-01-15T19:36:04.350Z,7.00
2019-01-15T19:38:56.454Z,7.10
2019-01-15T19:41:56.707Z,7.00
2019-01-15T19:48:06.359Z,7.00
2019-01-15T19:51:12.845Z,6.90
2019-01-15T19:54:14.476Z,6.90
2019-01-15T19:57:16.520Z,6.90
2019-01-15T20:00:16.879Z,7.00
2019-01-15T20:03:17.360Z,7.00
2019-01-15T20:09:01.166Z,7.00
2019-01-15T20:12:01.432Z,7.00
2019-01-15T20:15:02.828Z,7.10
2019-01-15T20:18:03.128Z,7.10
2019-01-15T20:23:58.139Z,7.10
2019-01-15T20:26:48.177Z,7.10
2019-01-15T20:29:48.391Z,7.00
2019-01-15T20:32:42.864Z,7.00
2019-01-15T20:38:45.651Z,7.00
2019-01-15T20:41:46.319Z,6.90
2019-01-15T20:48:07.842Z,6.90
2019-01-15T20:51:26.681Z,6.80
2019-01-15T20:54:11.938Z,6.70
2019-01-15T20:57:12.086Z,6.70
2019-01-15T21:00:15.793Z,6.80
2019-01-15T21:03:27.880Z,6.90
2019-01-15T21:12:37.017Z,6.90
2019-01-15T21:22:02.341Z,6.90
2019-01-15T21:25:02.627Z,6.90
2019-01-15T21:34:09.368Z,6.90
2019-01-15T21:37:09.522Z,7.00
2019-01-15T21:40:09.956Z,7.00
2019-01-15T21:43:09.566Z,7.00
2019-01-15T21:46:09.940Z,7.00
2019-01-15T21:49:13.303Z,7.00
2019-01-15T21:52:12.850Z,7.10
2019-01-15T21:55:16.283Z,7.10
2019-01-15T21:58:16.730Z,7.00
2019-01-15T22:01:17.008Z,7.00
2019-01-15T22:07:23.807Z,7.10
2019-01-15T22:10:16.401Z,7.10
2019-01-15T22:19:33.207Z,6.90
2019-01-15T22:25:41.887Z,6.90
2019-01-15T22:28:48.397Z,7.00
2019-01-15T22:31:39.585Z,7.00
2019-01-15T22:34:38.738Z,7.10
2019-01-15T22:37:41.873Z,7.00
2019-01-15T22:40:42.222Z,7.10
2019-01-15T22:43:35.061Z,7.00
2019-01-15T22:46:28.583Z,7.10
2019-01-15T22:49:28.472Z,7.10
2019-01-15T22:55:47.174Z,7.20
2019-01-15T22:58:36.862Z,7.10
2019-01-15T23:04:42.716Z,7.20
2019-01-15T23:07:43.598Z,7.20
2019-01-15T23:10:37.850Z,7.20
2019-01-15T23:16:49.514Z,7.30
2019-01-15T23:19:49.067Z,7.20
2019-01-15T23:25:55.371Z,7.30
2019-01-15T23:31:52.421Z,7.40
2019-01-15T23:34:52.759Z,7.40
2019-01-15T23:37:59.070Z,7.50
2019-01-15T23:40:58.853Z,7.50
2019-01-15T23:43:53.218Z,7.30
2019-01-15T23:46:54.557Z,7.30
2019-01-15T23:49:47.309Z,7.30
2019-01-15T23:52:37.734Z,7.30
2019-01-15T23:55:40.794Z,7.40
2019-01-15T23:58:36.653Z,7.30
